SOCASMJP

Guest
Details From SOCA - Cayenne Rochambeau
To SMJP - Paramaribo Johan A Pengel Intl
Flight Number -
Tags generated
Created
Modified
Stats Distance 173 nm / 321 km
Max Altitude 0 ft / 0 m
Waypoints 2
Social Downloads 0
Likes 0
Share VATSIM

Download

Looking for another format? Having issues loading an existing format? Contact us
Advertisement - Login to hide

Notes

Basic altitude profile: - Ascent Rate: 2500ft/min - Ascent Speed: 250kts - Cruise Altitude: 35000ft - Cruise Speed: 420kts - Descent Rate: 1500ft/min - Descent Speed: 250kts Options: - Use NATs: no - Use PACOTS: no - Use low airways: no - Use high airways: no

Route

SOCA SMJP

ID Type Via Altitude Latitude Longitude Leg Dist Tot Dist Heading (true) Name
O SOCA APT - 0 ft / 0 m 4.81981˚ -52.36045˚ - 0 nm - Cayenne Rochambeau
O SMJP APT - 0 ft / 0 m 5.45283˚ -55.18778˚ 173 nm 173 nm 283° / 283° Paramaribo Johan A Pengel Intl

Altitude Profile

Advertisement - Login to hide

Weather


0- 5 10 15 20 25 30 35+ Temperature / ° C

Clouds and Precipitation
Forecast for 2017-12-17 06:00 UTC. Updated an hour ago

Ground ~20,000 ft ~40,000 ft Winds

SOCA

Details ICAO SOCA (CAY)
Name Cayenne Rochambeau
Region French Guiana
Timezone America/Cayenne (UTC-3.0)
Stats Elevation 26 ft / 8 m (AMSL)
Location 4.819807° -52.360446°
Runways 1
Magnetic Variation 18.389° W

METAR

SOCA 170430Z AUTO VRB02KT 9999 FEW008 BKN026 BKN034 24/23 Q1011 TEMPO 3000 SHRA FEW012TCU

Decode

TAF

TAF SOCA 161700Z 1618/1718 07010KT 9999 SCT010 SCT022 BKN038 TEMPO 1618/1622 4000 SHRA SCT015TCU PROB30 TEMPO 1622/1705 3000 SHRA FEW012TCU PROB40 TEMPO 1705/1712 3000 SHRA FEW012TCU TEMPO 1715/1718 3000 SHRA FEW014TCU PROB30 TEMPO 1716/1718 1000 TSRA FEW012CB

Decode

Departure Runways

ID Width Length Bearing (true) Bearing (mag) Surface Threshold Offset Overrun Length
08 148 ft / 45 m 10,489 ft / 3,197 m 65.20° 83.59° Asphalt 0 ft / 0 m 244 ft / 74 m
26 148 ft / 45 m 10,489 ft / 3,197 m 245.20° 263.59° Asphalt 0 ft / 0 m 0 ft / 0 m

SMJP

Details ICAO SMJP (PBM)
Name Paramaribo Johan A Pengel Intl
Region Suriname
Timezone America/Paramaribo (UTC-3.0)
Stats Elevation 59 ft / 18 m (AMSL)
Location 5.452831° -55.187783°
Runways 1
Magnetic Variation 17.548° W

METAR

SMJP 170400Z 00000KT 9999 FEW012 23/22 Q1012 NOSIG

Decode

TAF

Not found

Destination Runways

ID Width Length Bearing (true) Bearing (mag) Surface Threshold Offset Overrun Length
11 148 ft / 45 m 11,415 ft / 3,479 m 89.66° 107.21° Concrete 0 ft / 0 m 164 ft / 50 m
29 148 ft / 45 m 11,415 ft / 3,479 m 269.67° 287.22° Concrete 0 ft / 0 m 197 ft / 60 m

Approach Navaids

Runway Type Ident Frequency Range Bearing (true) Bearing (mag) Slope Elevation
11 Localiser IZAN 109.90 MHz 18 nm / 33 km 89.67° 107.21° - 59 ft / 18 m (AMSL)
11 Glidescope IZAN 109.90 MHz 10 nm / 19 km 89.67° 107.21° 3.00° 56 ft / 17 m (AMSL)

Popular Alternatives